sensor_id;sensor_type;location;lat;lon;timestamp;P1;durP1;ratioP1;P2;durP2;ratioP2
6791;SDS011;3433;48.730;9.108;2024-02-14T00:00:17;3.17;;;2.60;;
6791;SDS011;3433;48.730;9.108;2024-02-14T00:03:06;4.20;;;2.20;;
6791;SDS011;3433;48.730;9.108;2024-02-14T00:05:53;3.80;;;2.37;;
6791;SDS011;3433;48.730;9.108;2024-02-14T00:08:41;7.27;;;2.20;;
6791;SDS011;3433;48.730;9.108;2024-02-14T00:11:28;5.00;;;2.10;;
6791;SDS011;3433;48.730;9.108;2024-02-14T00:14:15;6.70;;;3.10;;
6791;SDS011;3433;48.730;9.108;2024-02-14T00:17:06;2.30;;;2.07;;
6791;SDS011;3433;48.730;9.108;2024-02-14T00:19:53;3.23;;;2.40;;
6791;SDS011;3433;48.730;9.108;2024-02-14T00:22:41;5.30;;;2.80;;
6791;SDS011;3433;48.730;9.108;2024-02-14T00:25:28;2.37;;;2.10;;
6791;SDS011;3433;48.730;9.108;2024-02-14T00:28:16;3.20;;;2.07;;
6791;SDS011;3433;48.730;9.108;2024-02-14T00:31:03;5.33;;;2.37;;
6791;SDS011;3433;48.730;9.108;2024-02-14T00:33:53;6.03;;;2.60;;
6791;SDS011;3433;48.730;9.108;2024-02-14T00:36:40;4.30;;;2.40;;
6791;SDS011;3433;48.730;9.108;2024-02-14T00:39:27;5.50;;;2.50;;
6791;SDS011;3433;48.730;9.108;2024-02-14T00:42:14;3.87;;;2.50;;
6791;SDS011;3433;48.730;9.108;2024-02-14T00:45:02;4.30;;;2.90;;
6791;SDS011;3433;48.730;9.108;2024-02-14T00:47:50;6.63;;;3.20;;
6791;SDS011;3433;48.730;9.108;2024-02-14T00:50:39;5.27;;;2.77;;
6791;SDS011;3433;48.730;9.108;2024-02-14T00:53:26;4.00;;;3.10;;
6791;SDS011;3433;48.730;9.108;2024-02-14T00:56:13;7.53;;;3.30;;
6791;SDS011;3433;48.730;9.108;2024-02-14T00:59:00;4.20;;;2.60;;
6791;SDS011;3433;48.730;9.108;2024-02-14T01:01:48;5.97;;;3.17;;
6791;SDS011;3433;48.730;9.108;2024-02-14T01:04:35;7.40;;;3.13;;
6791;SDS011;3433;48.730;9.108;2024-02-14T01:07:24;6.80;;;3.03;;
6791;SDS011;3433;48.730;9.108;2024-02-14T01:10:11;4.60;;;3.07;;
6791;SDS011;3433;48.730;9.108;2024-02-14T01:12:58;4.87;;;3.10;;
6791;SDS011;3433;48.730;9.108;2024-02-14T01:15:46;6.57;;;3.20;;
6791;SDS011;3433;48.730;9.108;2024-02-14T01:18:33;10.73;;;3.00;;
6791;SDS011;3433;48.730;9.108;2024-02-14T01:21:21;6.30;;;3.10;;
6791;SDS011;3433;48.730;9.108;2024-02-14T01:24:09;3.30;;;2.87;;
6791;SDS011;3433;48.730;9.108;2024-02-14T01:26:56;5.17;;;2.97;;
6791;SDS011;3433;48.730;9.108;2024-02-14T01:29:43;3.90;;;3.03;;
6791;SDS011;3433;48.730;9.108;2024-02-14T01:32:31;6.90;;;2.87;;
6791;SDS011;3433;48.730;9.108;2024-02-14T01:35:18;5.80;;;3.40;;
6791;SDS011;3433;48.730;9.108;2024-02-14T01:38:05;5.83;;;3.37;;
6791;SDS011;3433;48.730;9.108;2024-02-14T01:40:54;4.90;;;3.30;;
6791;SDS011;3433;48.730;9.108;2024-02-14T01:43:41;5.80;;;3.60;;
6791;SDS011;3433;48.730;9.108;2024-02-14T01:46:29;6.07;;;3.20;;
6791;SDS011;3433;48.730;9.108;2024-02-14T01:49:16;5.00;;;3.10;;
6791;SDS011;3433;48.730;9.108;2024-02-14T01:52:04;7.20;;;3.73;;
6791;SDS011;3433;48.730;9.108;2024-02-14T01:54:52;6.90;;;2.87;;
6791;SDS011;3433;48.730;9.108;2024-02-14T01:57:42;11.03;;;3.53;;
6791;SDS011;3433;48.730;9.108;2024-02-14T02:00:30;7.90;;;3.70;;
6791;SDS011;3433;48.730;9.108;2024-02-14T02:03:19;6.90;;;2.90;;
6791;SDS011;3433;48.730;9.108;2024-02-14T02:06:07;7.50;;;3.30;;
6791;SDS011;3433;48.730;9.108;2024-02-14T02:08:55;5.13;;;3.40;;
6791;SDS011;3433;48.730;9.108;2024-02-14T02:11:45;5.50;;;3.60;;
6791;SDS011;3433;48.730;9.108;2024-02-14T02:14:35;3.87;;;3.37;;
6791;SDS011;3433;48.730;9.108;2024-02-14T02:17:22;4.53;;;3.03;;
6791;SDS011;3433;48.730;9.108;2024-02-14T02:20:10;5.67;;;3.30;;
6791;SDS011;3433;48.730;9.108;2024-02-14T02:22:59;7.00;;;3.50;;
6791;SDS011;3433;48.730;9.108;2024-02-14T02:25:48;4.73;;;3.30;;
6791;SDS011;3433;48.730;9.108;2024-02-14T02:28:35;7.00;;;3.10;;
6791;SDS011;3433;48.730;9.108;2024-02-14T02:31:22;5.17;;;3.00;;
6791;SDS011;3433;48.730;9.108;2024-02-14T02:34:10;4.50;;;2.50;;
6791;SDS011;3433;48.730;9.108;2024-02-14T02:36:58;6.60;;;3.37;;
6791;SDS011;3433;48.730;9.108;2024-02-14T02:39:46;7.60;;;3.70;;
6791;SDS011;3433;48.730;9.108;2024-02-14T02:42:34;4.60;;;2.60;;
6791;SDS011;3433;48.730;9.108;2024-02-14T02:45:21;4.43;;;3.53;;
6791;SDS011;3433;48.730;9.108;2024-02-14T02:48:08;6.07;;;3.43;;
6791;SDS011;3433;48.730;9.108;2024-02-14T02:50:55;10.27;;;3.70;;
6791;SDS011;3433;48.730;9.108;2024-02-14T02:53:44;4.93;;;3.43;;
6791;SDS011;3433;48.730;9.108;2024-02-14T02:56:32;7.33;;;4.17;;
6791;SDS011;3433;48.730;9.108;2024-02-14T02:59:19;4.77;;;3.63;;
6791;SDS011;3433;48.730;9.108;2024-02-14T03:02:07;4.40;;;3.60;;
6791;SDS011;3433;48.730;9.108;2024-02-14T03:04:57;6.70;;;4.20;;
6791;SDS011;3433;48.730;9.108;2024-02-14T03:07:44;3.50;;;2.73;;
6791;SDS011;3433;48.730;9.108;2024-02-14T03:10:33;11.13;;;3.60;;
6791;SDS011;3433;48.730;9.108;2024-02-14T03:13:21;7.73;;;3.83;;
6791;SDS011;3433;48.730;9.108;2024-02-14T03:16:09;6.60;;;3.40;;
6791;SDS011;3433;48.730;9.108;2024-02-14T03:18:56;5.50;;;3.70;;
6791;SDS011;3433;48.730;9.108;2024-02-14T03:21:44;4.50;;;3.53;;
6791;SDS011;3433;48.730;9.108;2024-02-14T03:24:32;7.13;;;3.83;;
6791;SDS011;3433;48.730;9.108;2024-02-14T03:27:20;3.33;;;2.77;;
6791;SDS011;3433;48.730;9.108;2024-02-14T03:30:11;9.10;;;3.50;;
6791;SDS011;3433;48.730;9.108;2024-02-14T03:33:02;4.50;;;3.40;;
6791;SDS011;3433;48.730;9.108;2024-02-14T03:35:50;6.20;;;3.97;;
6791;SDS011;3433;48.730;9.108;2024-02-14T03:38:37;5.87;;;3.70;;
6791;SDS011;3433;48.730;9.108;2024-02-14T03:41:25;4.00;;;2.80;;
6791;SDS011;3433;48.730;9.108;2024-02-14T03:44:13;6.37;;;3.80;;
6791;SDS011;3433;48.730;9.108;2024-02-14T03:47:01;4.17;;;3.00;;
6791;SDS011;3433;48.730;9.108;2024-02-14T03:49:49;4.20;;;3.00;;
6791;SDS011;3433;48.730;9.108;2024-02-14T03:52:37;5.67;;;2.77;;
6791;SDS011;3433;48.730;9.108;2024-02-14T03:55:24;2.93;;;2.33;;
6791;SDS011;3433;48.730;9.108;2024-02-14T03:58:11;4.83;;;2.60;;
6791;SDS011;3433;48.730;9.108;2024-02-14T04:01:00;3.33;;;2.13;;
6791;SDS011;3433;48.730;9.108;2024-02-14T04:03:49;3.13;;;2.10;;
6791;SDS011;3433;48.730;9.108;2024-02-14T04:06:36;3.13;;;2.30;;
6791;SDS011;3433;48.730;9.108;2024-02-14T04:09:23;5.93;;;2.67;;
6791;SDS011;3433;48.730;9.108;2024-02-14T04:12:10;3.23;;;2.50;;
6791;SDS011;3433;48.730;9.108;2024-02-14T04:14:58;6.80;;;3.07;;
6791;SDS011;3433;48.730;9.108;2024-02-14T04:17:47;4.30;;;2.80;;
6791;SDS011;3433;48.730;9.108;2024-02-14T04:20:35;6.00;;;2.90;;
6791;SDS011;3433;48.730;9.108;2024-02-14T04:23:23;4.27;;;2.60;;
6791;SDS011;3433;48.730;9.108;2024-02-14T04:26:17;4.00;;;2.87;;
6791;SDS011;3433;48.730;9.108;2024-02-14T04:29:05;4.33;;;3.57;;
6791;SDS011;3433;48.730;9.108;2024-02-14T04:31:54;5.23;;;2.87;;
6791;SDS011;3433;48.730;9.108;2024-02-14T04:34:41;5.90;;;3.03;;
6791;SDS011;3433;48.730;9.108;2024-02-14T04:37:30;7.13;;;2.60;;
6791;SDS011;3433;48.730;9.108;2024-02-14T04:40:18;4.97;;;3.00;;
6791;SDS011;3433;48.730;9.108;2024-02-14T04:43:05;3.63;;;2.87;;
6791;SDS011;3433;48.730;9.108;2024-02-14T04:45:53;4.07;;;2.33;;
6791;SDS011;3433;48.730;9.108;2024-02-14T04:48:40;4.30;;;2.47;;
6791;SDS011;3433;48.730;9.108;2024-02-14T04:51:27;6.10;;;2.63;;
6791;SDS011;3433;48.730;9.108;2024-02-14T04:54:16;3.77;;;2.90;;
6791;SDS011;3433;48.730;9.108;2024-02-14T04:57:03;4.43;;;2.13;;
6791;SDS011;3433;48.730;9.108;2024-02-14T04:59:50;4.57;;;2.43;;
6791;SDS011;3433;48.730;9.108;2024-02-14T05:02:38;2.30;;;2.10;;
6791;SDS011;3433;48.730;9.108;2024-02-14T05:05:26;4.30;;;2.33;;
6791;SDS011;3433;48.730;9.108;2024-02-14T05:08:13;4.40;;;2.37;;
6791;SDS011;3433;48.730;9.108;2024-02-14T05:11:02;2.27;;;2.07;;
6791;SDS011;3433;48.730;9.108;2024-02-14T05:13:50;2.57;;;2.10;;
6791;SDS011;3433;48.730;9.108;2024-02-14T05:16:37;5.70;;;2.60;;
6791;SDS011;3433;48.730;9.108;2024-02-14T05:19:25;4.00;;;2.57;;
6791;SDS011;3433;48.730;9.108;2024-02-14T05:22:12;3.90;;;2.27;;
6791;SDS011;3433;48.730;9.108;2024-02-14T05:24:59;5.80;;;3.17;;
6791;SDS011;3433;48.730;9.108;2024-02-14T05:27:48;5.87;;;2.60;;
6791;SDS011;3433;48.730;9.108;2024-02-14T05:30:35;3.40;;;2.70;;
6791;SDS011;3433;48.730;9.108;2024-02-14T05:33:23;3.40;;;2.13;;
6791;SDS011;3433;48.730;9.108;2024-02-14T05:36:10;4.70;;;2.30;;
6791;SDS011;3433;48.730;9.108;2024-02-14T05:38:59;3.20;;;2.13;;
6791;SDS011;3433;48.730;9.108;2024-02-14T05:41:46;4.57;;;2.07;;
6791;SDS011;3433;48.730;9.108;2024-02-14T05:44:35;3.87;;;1.90;;
6791;SDS011;3433;48.730;9.108;2024-02-14T05:47:22;2.80;;;2.00;;
6791;SDS011;3433;48.730;9.108;2024-02-14T05:50:10;2.90;;;1.90;;
6791;SDS011;3433;48.730;9.108;2024-02-14T05:52:59;5.10;;;2.13;;
6791;SDS011;3433;48.730;9.108;2024-02-14T05:55:46;3.27;;;2.80;;
6791;SDS011;3433;48.730;9.108;2024-02-14T05:58:33;3.43;;;1.73;;
6791;SDS011;3433;48.730;9.108;2024-02-14T06:01:22;7.43;;;2.30;;
6791;SDS011;3433;48.730;9.108;2024-02-14T06:04:09;4.40;;;1.60;;
6791;SDS011;3433;48.730;9.108;2024-02-14T06:06:56;4.20;;;1.83;;
6791;SDS011;3433;48.730;9.108;2024-02-14T06:09:44;2.23;;;2.00;;
6791;SDS011;3433;48.730;9.108;2024-02-14T06:12:31;4.80;;;2.30;;
6791;SDS011;3433;48.730;9.108;2024-02-14T06:15:19;1.70;;;1.60;;
6791;SDS011;3433;48.730;9.108;2024-02-14T06:18:07;6.17;;;1.90;;
6791;SDS011;3433;48.730;9.108;2024-02-14T06:20:55;4.70;;;2.23;;
6791;SDS011;3433;48.730;9.108;2024-02-14T06:23:42;7.53;;;1.70;;
6791;SDS011;3433;48.730;9.108;2024-02-14T06:26:32;4.00;;;1.60;;
6791;SDS011;3433;48.730;9.108;2024-02-14T06:29:19;7.17;;;1.60;;
6791;SDS011;3433;48.730;9.108;2024-02-14T06:32:07;2.20;;;2.00;;
6791;SDS011;3433;48.730;9.108;2024-02-14T06:34:55;5.20;;;1.90;;
6791;SDS011;3433;48.730;9.108;2024-02-14T06:37:42;4.27;;;1.80;;
6791;SDS011;3433;48.730;9.108;2024-02-14T06:40:29;2.77;;;1.83;;
6791;SDS011;3433;48.730;9.108;2024-02-14T06:43:16;2.70;;;1.90;;
6791;SDS011;3433;48.730;9.108;2024-02-14T06:46:05;2.20;;;1.93;;
6791;SDS011;3433;48.730;9.108;2024-02-14T06:48:52;4.43;;;2.27;;
6791;SDS011;3433;48.730;9.108;2024-02-14T06:51:41;3.90;;;1.77;;
6791;SDS011;3433;48.730;9.108;2024-02-14T06:54:28;2.93;;;1.90;;
6791;SDS011;3433;48.730;9.108;2024-02-14T06:57:15;2.00;;;1.67;;
6791;SDS011;3433;48.730;9.108;2024-02-14T07:00:03;3.07;;;2.23;;
6791;SDS011;3433;48.730;9.108;2024-02-14T07:02:52;2.83;;;2.00;;
6791;SDS011;3433;48.730;9.108;2024-02-14T07:05:39;15.43;;;9.00;;
6791;SDS011;3433;48.730;9.108;2024-02-14T07:08:28;6.30;;;3.60;;
6791;SDS011;3433;48.730;9.108;2024-02-14T07:11:16;3.03;;;2.53;;
6791;SDS011;3433;48.730;9.108;2024-02-14T07:14:03;2.37;;;2.00;;
6791;SDS011;3433;48.730;9.108;2024-02-14T07:16:51;1.93;;;1.70;;
6791;SDS011;3433;48.730;9.108;2024-02-14T07:19:38;3.87;;;2.37;;
6791;SDS011;3433;48.730;9.108;2024-02-14T07:22:28;8.57;;;2.00;;
6791;SDS011;3433;48.730;9.108;2024-02-14T07:25:17;3.23;;;1.60;;
6791;SDS011;3433;48.730;9.108;2024-02-14T07:28:04;2.40;;;1.80;;
6791;SDS011;3433;48.730;9.108;2024-02-14T07:30:52;5.03;;;1.80;;
6791;SDS011;3433;48.730;9.108;2024-02-14T07:33:42;3.43;;;1.63;;
6791;SDS011;3433;48.730;9.108;2024-02-14T07:36:29;3.43;;;1.80;;
6791;SDS011;3433;48.730;9.108;2024-02-14T07:39:18;3.60;;;1.97;;
6791;SDS011;3433;48.730;9.108;2024-02-14T07:42:06;4.47;;;2.23;;
6791;SDS011;3433;48.730;9.108;2024-02-14T07:44:54;1.57;;;1.20;;
6791;SDS011;3433;48.730;9.108;2024-02-14T07:47:41;1.87;;;1.77;;
6791;SDS011;3433;48.730;9.108;2024-02-14T07:50:29;3.97;;;1.60;;
6791;SDS011;3433;48.730;9.108;2024-02-14T07:53:16;2.57;;;1.70;;
6791;SDS011;3433;48.730;9.108;2024-02-14T07:56:03;2.70;;;1.30;;
6791;SDS011;3433;48.730;9.108;2024-02-14T07:58:52;2.20;;;1.43;;
6791;SDS011;3433;48.730;9.108;2024-02-14T08:01:39;2.10;;;1.80;;
6791;SDS011;3433;48.730;9.108;2024-02-14T08:04:28;2.83;;;1.50;;
6791;SDS011;3433;48.730;9.108;2024-02-14T08:07:15;2.10;;;1.30;;
6791;SDS011;3433;48.730;9.108;2024-02-14T08:10:03;2.67;;;1.43;;
6791;SDS011;3433;48.730;9.108;2024-02-14T08:12:51;2.03;;;1.50;;
6791;SDS011;3433;48.730;9.108;2024-02-14T08:15:39;4.57;;;1.57;;
6791;SDS011;3433;48.730;9.108;2024-02-14T08:18:26;5.40;;;1.63;;
6791;SDS011;3433;48.730;9.108;2024-02-14T08:21:14;2.57;;;1.83;;
6791;SDS011;3433;48.730;9.108;2024-02-14T08:24:01;1.53;;;1.43;;
6791;SDS011;3433;48.730;9.108;2024-02-14T08:26:48;2.33;;;1.63;;
6791;SDS011;3433;48.730;9.108;2024-02-14T08:29:35;2.73;;;1.60;;
6791;SDS011;3433;48.730;9.108;2024-02-14T08:32:24;2.13;;;1.50;;
6791;SDS011;3433;48.730;9.108;2024-02-14T08:35:11;2.17;;;1.53;;
6791;SDS011;3433;48.730;9.108;2024-02-14T08:37:59;1.70;;;1.50;;
6791;SDS011;3433;48.730;9.108;2024-02-14T08:40:46;2.40;;;2.10;;
6791;SDS011;3433;48.730;9.108;2024-02-14T08:43:34;2.20;;;1.67;;
6791;SDS011;3433;48.730;9.108;2024-02-14T08:46:22;6.67;;;1.97;;
6791;SDS011;3433;48.730;9.108;2024-02-14T08:49:12;4.47;;;2.10;;
6791;SDS011;3433;48.730;9.108;2024-02-14T08:51:59;2.20;;;1.67;;
6791;SDS011;3433;48.730;9.108;2024-02-14T08:54:46;2.00;;;1.50;;
6791;SDS011;3433;48.730;9.108;2024-02-14T08:57:33;5.10;;;1.67;;
6791;SDS011;3433;48.730;9.108;2024-02-14T09:00:21;2.10;;;1.57;;
6791;SDS011;3433;48.730;9.108;2024-02-14T09:03:08;2.73;;;1.60;;
6791;SDS011;3433;48.730;9.108;2024-02-14T09:05:57;3.40;;;2.00;;
6791;SDS011;3433;48.730;9.108;2024-02-14T09:08:44;2.33;;;1.70;;
6791;SDS011;3433;48.730;9.108;2024-02-14T09:11:31;3.33;;;2.10;;
6791;SDS011;3433;48.730;9.108;2024-02-14T09:14:18;2.33;;;1.83;;
6791;SDS011;3433;48.730;9.108;2024-02-14T09:17:05;2.23;;;1.90;;
6791;SDS011;3433;48.730;9.108;2024-02-14T09:19:53;3.53;;;1.50;;
6791;SDS011;3433;48.730;9.108;2024-02-14T09:22:41;5.10;;;1.63;;
6791;SDS011;3433;48.730;9.108;2024-02-14T09:25:28;3.27;;;1.67;;
6791;SDS011;3433;48.730;9.108;2024-02-14T09:28:16;2.13;;;1.40;;
6791;SDS011;3433;48.730;9.108;2024-02-14T09:31:03;1.63;;;1.30;;
6791;SDS011;3433;48.730;9.108;2024-02-14T09:33:51;1.53;;;1.40;;
6791;SDS011;3433;48.730;9.108;2024-02-14T09:36:42;1.70;;;1.60;;
6791;SDS011;3433;48.730;9.108;2024-02-14T09:39:30;2.40;;;1.30;;
6791;SDS011;3433;48.730;9.108;2024-02-14T09:42:19;3.60;;;1.53;;
6791;SDS011;3433;48.730;9.108;2024-02-14T09:45:14;3.33;;;1.67;;
6791;SDS011;3433;48.730;9.108;2024-02-14T09:48:01;2.80;;;1.73;;
6791;SDS011;3433;48.730;9.108;2024-02-14T09:50:51;4.17;;;1.73;;
6791;SDS011;3433;48.730;9.108;2024-02-14T09:53:40;3.90;;;2.13;;
6791;SDS011;3433;48.730;9.108;2024-02-14T09:56:30;1.63;;;1.17;;
6791;SDS011;3433;48.730;9.108;2024-02-14T09:59:18;4.63;;;1.40;;
6791;SDS011;3433;48.730;9.108;2024-02-14T10:02:05;2.93;;;1.20;;
6791;SDS011;3433;48.730;9.108;2024-02-14T10:04:53;2.63;;;1.60;;
6791;SDS011;3433;48.730;9.108;2024-02-14T10:07:40;2.83;;;1.50;;
6791;SDS011;3433;48.730;9.108;2024-02-14T10:10:28;1.80;;;1.13;;
6791;SDS011;3433;48.730;9.108;2024-02-14T10:13:16;1.63;;;1.13;;
6791;SDS011;3433;48.730;9.108;2024-02-14T10:16:04;2.30;;;1.23;;
6791;SDS011;3433;48.730;9.108;2024-02-14T10:18:53;3.40;;;1.50;;
6791;SDS011;3433;48.730;9.108;2024-02-14T10:21:41;5.20;;;2.00;;
6791;SDS011;3433;48.730;9.108;2024-02-14T10:24:28;2.83;;;1.30;;
6791;SDS011;3433;48.730;9.108;2024-02-14T10:27:17;1.60;;;1.37;;
6791;SDS011;3433;48.730;9.108;2024-02-14T10:30:07;4.17;;;1.40;;
6791;SDS011;3433;48.730;9.108;2024-02-14T10:32:55;2.57;;;1.20;;
6791;SDS011;3433;48.730;9.108;2024-02-14T10:35:45;1.27;;;1.07;;
6791;SDS011;3433;48.730;9.108;2024-02-14T10:38:33;1.77;;;1.53;;
6791;SDS011;3433;48.730;9.108;2024-02-14T10:41:21;2.37;;;1.10;;
6791;SDS011;3433;48.730;9.108;2024-02-14T10:44:09;1.40;;;1.30;;
6791;SDS011;3433;48.730;9.108;2024-02-14T10:46:59;1.30;;;1.00;;
6791;SDS011;3433;48.730;9.108;2024-02-14T10:49:49;1.73;;;1.17;;
6791;SDS011;3433;48.730;9.108;2024-02-14T10:52:37;2.70;;;1.50;;
6791;SDS011;3433;48.730;9.108;2024-02-14T10:55:27;1.67;;;1.23;;
6791;SDS011;3433;48.730;9.108;2024-02-14T10:58:17;1.20;;;1.00;;
6791;SDS011;3433;48.730;9.108;2024-02-14T11:01:08;2.77;;;1.20;;
6791;SDS011;3433;48.730;9.108;2024-02-14T11:03:56;4.20;;;0.83;;
6791;SDS011;3433;48.730;9.108;2024-02-14T11:06:45;2.10;;;0.90;;
6791;SDS011;3433;48.730;9.108;2024-02-14T11:09:32;2.07;;;1.03;;
6791;SDS011;3433;48.730;9.108;2024-02-14T11:12:22;4.97;;;1.00;;
6791;SDS011;3433;48.730;9.108;2024-02-14T11:15:10;1.23;;;1.00;;
6791;SDS011;3433;48.730;9.108;2024-02-14T11:18:03;1.10;;;1.00;;
6791;SDS011;3433;48.730;9.108;2024-02-14T11:20:54;4.83;;;0.90;;
6791;SDS011;3433;48.730;9.108;2024-02-14T11:23:52;2.80;;;1.13;;
6791;SDS011;3433;48.730;9.108;2024-02-14T11:26:39;3.17;;;1.33;;
6791;SDS011;3433;48.730;9.108;2024-02-14T11:29:32;2.17;;;1.20;;
6791;SDS011;3433;48.730;9.108;2024-02-14T11:32:19;2.73;;;1.60;;
6791;SDS011;3433;48.730;9.108;2024-02-14T11:35:11;1.70;;;1.00;;
6791;SDS011;3433;48.730;9.108;2024-02-14T11:38:00;2.73;;;1.20;;
6791;SDS011;3433;48.730;9.108;2024-02-14T11:40:49;1.77;;;1.00;;
6791;SDS011;3433;48.730;9.108;2024-02-14T11:43:36;1.90;;;1.00;;
6791;SDS011;3433;48.730;9.108;2024-02-14T11:46:24;2.97;;;1.10;;
6791;SDS011;3433;48.730;9.108;2024-02-14T11:49:14;3.30;;;0.90;;
6791;SDS011;3433;48.730;9.108;2024-02-14T11:52:02;1.57;;;1.00;;
6791;SDS011;3433;48.730;9.108;2024-02-14T11:54:51;1.10;;;0.90;;
6791;SDS011;3433;48.730;9.108;2024-02-14T11:57:41;2.03;;;1.10;;
6791;SDS011;3433;48.730;9.108;2024-02-14T12:00:29;1.70;;;1.00;;
6791;SDS011;3433;48.730;9.108;2024-02-14T12:03:17;1.40;;;0.90;;
6791;SDS011;3433;48.730;9.108;2024-02-14T12:06:06;2.40;;;1.10;;
6791;SDS011;3433;48.730;9.108;2024-02-14T12:08:53;2.00;;;1.00;;
6791;SDS011;3433;48.730;9.108;2024-02-14T12:11:42;1.60;;;1.00;;
6791;SDS011;3433;48.730;9.108;2024-02-14T12:14:32;1.10;;;0.90;;
6791;SDS011;3433;48.730;9.108;2024-02-14T12:17:20;2.57;;;1.10;;
6791;SDS011;3433;48.730;9.108;2024-02-14T12:20:08;2.00;;;1.43;;
6791;SDS011;3433;48.730;9.108;2024-02-14T12:22:56;1.93;;;1.20;;
6791;SDS011;3433;48.730;9.108;2024-02-14T12:25:44;2.07;;;0.80;;
6791;SDS011;3433;48.730;9.108;2024-02-14T12:28:34;1.97;;;1.83;;
6791;SDS011;3433;48.730;9.108;2024-02-14T12:31:22;1.23;;;1.13;;
6791;SDS011;3433;48.730;9.108;2024-02-14T12:34:10;1.40;;;0.80;;
6791;SDS011;3433;48.730;9.108;2024-02-14T12:36:58;2.03;;;1.10;;
6791;SDS011;3433;48.730;9.108;2024-02-14T12:39:46;1.33;;;0.90;;
6791;SDS011;3433;48.730;9.108;2024-02-14T12:42:33;1.87;;;0.90;;
6791;SDS011;3433;48.730;9.108;2024-02-14T12:45:22;2.83;;;0.90;;
6791;SDS011;3433;48.730;9.108;2024-02-14T12:48:10;1.50;;;0.80;;
6791;SDS011;3433;48.730;9.108;2024-02-14T12:50:59;1.40;;;0.80;;
6791;SDS011;3433;48.730;9.108;2024-02-14T12:53:46;1.10;;;0.80;;
6791;SDS011;3433;48.730;9.108;2024-02-14T12:56:33;3.40;;;1.10;;
6791;SDS011;3433;48.730;9.108;2024-02-14T12:59:20;1.20;;;0.80;;
6791;SDS011;3433;48.730;9.108;2024-02-14T13:02:09;1.00;;;0.70;;
6791;SDS011;3433;48.730;9.108;2024-02-14T13:04:56;1.77;;;0.70;;
6791;SDS011;3433;48.730;9.108;2024-02-14T13:07:43;2.40;;;0.90;;
6791;SDS011;3433;48.730;9.108;2024-02-14T13:10:32;3.67;;;0.70;;
6791;SDS011;3433;48.730;9.108;2024-02-14T13:13:19;3.17;;;0.83;;
6791;SDS011;3433;48.730;9.108;2024-02-14T13:16:06;3.43;;;1.07;;
6791;SDS011;3433;48.730;9.108;2024-02-14T13:18:55;1.27;;;0.60;;
6791;SDS011;3433;48.730;9.108;2024-02-14T13:21:42;2.10;;;0.83;;
6791;SDS011;3433;48.730;9.108;2024-02-14T13:24:30;1.50;;;1.40;;
6791;SDS011;3433;48.730;9.108;2024-02-14T13:27:18;2.20;;;0.80;;
6791;SDS011;3433;48.730;9.108;2024-02-14T13:30:07;1.93;;;0.77;;
6791;SDS011;3433;48.730;9.108;2024-02-14T13:32:54;2.03;;;0.70;;
6791;SDS011;3433;48.730;9.108;2024-02-14T13:35:43;0.87;;;0.63;;
6791;SDS011;3433;48.730;9.108;2024-02-14T13:38:30;1.23;;;0.70;;
6791;SDS011;3433;48.730;9.108;2024-02-14T13:41:18;1.00;;;0.60;;
6791;SDS011;3433;48.730;9.108;2024-02-14T13:44:06;1.67;;;0.63;;
6791;SDS011;3433;48.730;9.108;2024-02-14T13:46:53;0.60;;;0.53;;
6791;SDS011;3433;48.730;9.108;2024-02-14T13:49:41;0.63;;;0.50;;
6791;SDS011;3433;48.730;9.108;2024-02-14T13:52:29;0.90;;;0.70;;
6791;SDS011;3433;48.730;9.108;2024-02-14T13:55:18;1.60;;;1.30;;
6791;SDS011;3433;48.730;9.108;2024-02-14T13:58:05;2.83;;;2.00;;
6791;SDS011;3433;48.730;9.108;2024-02-14T14:00:59;2.10;;;0.83;;
6791;SDS011;3433;48.730;9.108;2024-02-14T14:03:46;5.43;;;2.27;;
6791;SDS011;3433;48.730;9.108;2024-02-14T14:06:35;0.77;;;0.60;;
6791;SDS011;3433;48.730;9.108;2024-02-14T14:09:24;0.90;;;0.50;;
6791;SDS011;3433;48.730;9.108;2024-02-14T14:12:12;0.73;;;0.67;;
6791;SDS011;3433;48.730;9.108;2024-02-14T14:14:59;1.40;;;0.80;;
6791;SDS011;3433;48.730;9.108;2024-02-14T14:17:47;0.97;;;0.63;;
6791;SDS011;3433;48.730;9.108;2024-02-14T14:20:34;0.90;;;0.80;;
6791;SDS011;3433;48.730;9.108;2024-02-14T14:23:21;0.70;;;0.57;;
6791;SDS011;3433;48.730;9.108;2024-02-14T14:26:10;1.50;;;0.70;;
6791;SDS011;3433;48.730;9.108;2024-02-14T14:28:58;1.10;;;0.60;;
6791;SDS011;3433;48.730;9.108;2024-02-14T14:31:45;2.90;;;0.70;;
6791;SDS011;3433;48.730;9.108;2024-02-14T14:34:33;1.00;;;0.77;;
6791;SDS011;3433;48.730;9.108;2024-02-14T14:37:20;1.00;;;0.70;;
6791;SDS011;3433;48.730;9.108;2024-02-14T14:40:07;2.80;;;0.90;;
6791;SDS011;3433;48.730;9.108;2024-02-14T14:42:57;6.03;;;0.73;;
6791;SDS011;3433;48.730;9.108;2024-02-14T14:45:44;0.70;;;0.70;;
6791;SDS011;3433;48.730;9.108;2024-02-14T14:48:31;0.60;;;0.60;;
6791;SDS011;3433;48.730;9.108;2024-02-14T14:51:18;1.10;;;0.70;;
6791;SDS011;3433;48.730;9.108;2024-02-14T14:54:06;4.00;;;2.20;;
6791;SDS011;3433;48.730;9.108;2024-02-14T14:56:53;6.90;;;3.30;;
6791;SDS011;3433;48.730;9.108;2024-02-14T14:59:42;1.33;;;0.80;;
6791;SDS011;3433;48.730;9.108;2024-02-14T15:02:29;2.60;;;0.70;;
6791;SDS011;3433;48.730;9.108;2024-02-14T15:05:16;1.00;;;0.83;;
6791;SDS011;3433;48.730;9.108;2024-02-14T15:08:04;1.33;;;0.70;;
6791;SDS011;3433;48.730;9.108;2024-02-14T15:10:52;1.00;;;0.70;;
6791;SDS011;3433;48.730;9.108;2024-02-14T15:13:40;3.30;;;0.90;;
6791;SDS011;3433;48.730;9.108;2024-02-14T15:16:29;0.87;;;0.67;;
6791;SDS011;3433;48.730;9.108;2024-02-14T15:19:16;1.60;;;0.70;;
6791;SDS011;3433;48.730;9.108;2024-02-14T15:22:03;1.10;;;0.80;;
6791;SDS011;3433;48.730;9.108;2024-02-14T15:24:50;1.70;;;0.80;;
6791;SDS011;3433;48.730;9.108;2024-02-14T15:27:39;1.00;;;0.90;;
6791;SDS011;3433;48.730;9.108;2024-02-14T15:30:29;1.10;;;0.80;;
6791;SDS011;3433;48.730;9.108;2024-02-14T15:33:35;0.90;;;0.77;;
6791;SDS011;3433;48.730;9.108;2024-02-14T15:36:23;2.57;;;1.30;;
6791;SDS011;3433;48.730;9.108;2024-02-14T15:39:10;3.53;;;1.00;;
6791;SDS011;3433;48.730;9.108;2024-02-14T15:41:57;1.30;;;0.90;;
6791;SDS011;3433;48.730;9.108;2024-02-14T15:44:44;0.80;;;0.70;;
6791;SDS011;3433;48.730;9.108;2024-02-14T15:47:31;2.00;;;0.70;;
6791;SDS011;3433;48.730;9.108;2024-02-14T15:50:20;1.07;;;0.97;;
6791;SDS011;3433;48.730;9.108;2024-02-14T15:53:08;0.73;;;0.60;;
6791;SDS011;3433;48.730;9.108;2024-02-14T15:55:56;3.10;;;0.80;;
6791;SDS011;3433;48.730;9.108;2024-02-14T15:58:43;0.80;;;0.70;;
6791;SDS011;3433;48.730;9.108;2024-02-14T16:01:31;7.50;;;5.00;;
6791;SDS011;3433;48.730;9.108;2024-02-14T16:04:18;4.17;;;2.40;;
6791;SDS011;3433;48.730;9.108;2024-02-14T16:07:07;3.53;;;0.97;;
6791;SDS011;3433;48.730;9.108;2024-02-14T16:09:54;3.83;;;0.90;;
6791;SDS011;3433;48.730;9.108;2024-02-14T16:12:42;1.57;;;0.77;;
6791;SDS011;3433;48.730;9.108;2024-02-14T16:15:30;1.30;;;1.13;;
6791;SDS011;3433;48.730;9.108;2024-02-14T16:18:17;1.10;;;0.90;;
6791;SDS011;3433;48.730;9.108;2024-02-14T16:21:04;1.20;;;0.90;;
6791;SDS011;3433;48.730;9.108;2024-02-14T16:23:53;6.63;;;4.50;;
6791;SDS011;3433;48.730;9.108;2024-02-14T16:26:40;2.03;;;1.80;;
6791;SDS011;3433;48.730;9.108;2024-02-14T16:29:27;3.57;;;1.40;;
6791;SDS011;3433;48.730;9.108;2024-02-14T16:32:16;3.63;;;1.00;;
6791;SDS011;3433;48.730;9.108;2024-02-14T16:35:03;2.80;;;1.27;;
6791;SDS011;3433;48.730;9.108;2024-02-14T16:37:51;1.20;;;1.10;;
6791;SDS011;3433;48.730;9.108;2024-02-14T16:40:40;1.37;;;1.10;;
6791;SDS011;3433;48.730;9.108;2024-02-14T16:43:27;1.50;;;1.40;;
6791;SDS011;3433;48.730;9.108;2024-02-14T16:46:15;1.90;;;1.70;;
6791;SDS011;3433;48.730;9.108;2024-02-14T16:49:02;3.43;;;2.30;;
6791;SDS011;3433;48.730;9.108;2024-02-14T16:51:49;2.53;;;1.60;;
6791;SDS011;3433;48.730;9.108;2024-02-14T16:54:36;1.50;;;1.20;;
6791;SDS011;3433;48.730;9.108;2024-02-14T16:57:25;3.10;;;1.30;;
6791;SDS011;3433;48.730;9.108;2024-02-14T17:00:13;1.80;;;1.10;;
6791;SDS011;3433;48.730;9.108;2024-02-14T17:03:00;2.40;;;1.33;;
6791;SDS011;3433;48.730;9.108;2024-02-14T17:05:48;1.33;;;1.10;;
6791;SDS011;3433;48.730;9.108;2024-02-14T17:08:35;2.40;;;1.50;;
6791;SDS011;3433;48.730;9.108;2024-02-14T17:11:22;1.40;;;1.23;;
6791;SDS011;3433;48.730;9.108;2024-02-14T17:14:12;1.80;;;1.50;;
6791;SDS011;3433;48.730;9.108;2024-02-14T17:16:59;2.03;;;1.73;;
6791;SDS011;3433;48.730;9.108;2024-02-14T17:19:47;4.93;;;1.37;;
6791;SDS011;3433;48.730;9.108;2024-02-14T17:22:34;4.13;;;1.80;;